Terminal Aerodrome Forecast
Issued by NWS Louisville, KY

Home | Current Version | Previous Version | Text Only | Print | Product List | Glossary On
Versions: 1 2 3 4 5 6 7 8 9 10 11 12 13 14 15 16 17 18 19 20 21
811
FTUS43 KLMK 221127
TAFSDF
TAF
KSDF 221127Z 2212/2318 03007KT 5SM -RA BR OVC015
     FM221230 04012KT P6SM OVC021
     FM221700 05012G21KT 6SM -SHRA BR OVC012
     FM222200 04011KT P6SM OVC035
     FM230800 04012KT P6SM BKN060=

USA.gov is the U.S. government's official web portal to all federal, state and local government web resources and services.